sensor_id;sensor_type;location;lat;lon;timestamp;pressure;altitude;pressure_sealevel;temperature;humidity
19286;BME280;9776;50.798;6.430;2022-11-11T00:02:07;101486.78;;;9.67;67.14
19286;BME280;9776;50.798;6.430;2022-11-11T00:04:34;101496.00;;;9.61;67.41
19286;BME280;9776;50.798;6.430;2022-11-11T00:07:00;101498.03;;;9.58;67.35
19286;BME280;9776;50.798;6.430;2022-11-11T00:09:27;101502.34;;;9.59;67.32
19286;BME280;9776;50.798;6.430;2022-11-11T00:11:55;101499.59;;;9.60;67.38
19286;BME280;9776;50.798;6.430;2022-11-11T00:14:22;101518.88;;;9.61;67.27
19286;BME280;9776;50.798;6.430;2022-11-11T00:16:48;101510.16;;;9.60;67.19
19286;BME280;9776;50.798;6.430;2022-11-11T00:19:32;101504.66;;;9.63;67.13
19286;BME280;9776;50.798;6.430;2022-11-11T00:22:20;101498.53;;;9.63;67.19
19286;BME280;9776;50.798;6.430;2022-11-11T00:25:04;101486.28;;;9.62;67.27
19286;BME280;9776;50.798;6.430;2022-11-11T00:27:32;101497.91;;;9.59;67.13
19286;BME280;9776;50.798;6.430;2022-11-11T00:29:59;101495.63;;;9.55;67.33
19286;BME280;9776;50.798;6.430;2022-11-11T00:32:26;101497.75;;;9.50;67.41
19286;BME280;9776;50.798;6.430;2022-11-11T00:34:57;101506.41;;;9.52;67.41
19286;BME280;9776;50.798;6.430;2022-11-11T00:37:42;101518.59;;;9.53;67.54
19286;BME280;9776;50.798;6.430;2022-11-11T00:40:10;101523.28;;;9.49;67.38
19286;BME280;9776;50.798;6.430;2022-11-11T00:42:38;101533.56;;;9.52;67.11
19286;BME280;9776;50.798;6.430;2022-11-11T00:45:06;101544.28;;;9.38;67.65
19286;BME280;9776;50.798;6.430;2022-11-11T00:47:33;101544.84;;;9.31;67.77
19286;BME280;9776;50.798;6.430;2022-11-11T00:50:20;101546.16;;;9.25;67.67
19286;BME280;9776;50.798;6.430;2022-11-11T00:53:08;101543.81;;;9.21;67.67
19286;BME280;9776;50.798;6.430;2022-11-11T00:55:35;101536.91;;;9.20;67.48
19286;BME280;9776;50.798;6.430;2022-11-11T00:58:03;101544.06;;;9.18;67.39
19286;BME280;9776;50.798;6.430;2022-11-11T01:00:30;101530.06;;;9.17;67.49
19286;BME280;9776;50.798;6.430;2022-11-11T01:02:57;101533.34;;;9.08;67.66
19286;BME280;9776;50.798;6.430;2022-11-11T01:05:24;101528.63;;;9.00;67.83
19286;BME280;9776;50.798;6.430;2022-11-11T01:07:51;101519.78;;;9.01;68.11
19286;BME280;9776;50.798;6.430;2022-11-11T01:10:18;101515.91;;;8.94;68.27
19286;BME280;9776;50.798;6.430;2022-11-11T01:12:59;101527.69;;;8.89;68.30
19286;BME280;9776;50.798;6.430;2022-11-11T01:15:38;101528.16;;;8.83;68.54
19286;BME280;9776;50.798;6.430;2022-11-11T01:18:06;101526.47;;;8.82;68.72
19286;BME280;9776;50.798;6.430;2022-11-11T01:20:33;101526.56;;;8.80;68.71
19286;BME280;9776;50.798;6.430;2022-11-11T01:23:02;101531.31;;;8.88;68.56
19286;BME280;9776;50.798;6.430;2022-11-11T01:25:31;101546.03;;;8.90;68.45
19286;BME280;9776;50.798;6.430;2022-11-11T01:27:58;101546.75;;;8.92;68.54
19286;BME280;9776;50.798;6.430;2022-11-11T01:30:25;101550.88;;;8.96;68.29
19286;BME280;9776;50.798;6.430;2022-11-11T01:32:53;101552.03;;;8.92;68.42
19286;BME280;9776;50.798;6.430;2022-11-11T01:35:19;101557.22;;;8.81;68.60
19286;BME280;9776;50.798;6.430;2022-11-11T01:37:46;101549.25;;;8.70;68.84
19286;BME280;9776;50.798;6.430;2022-11-11T01:40:13;101551.44;;;8.64;68.89
19286;BME280;9776;50.798;6.430;2022-11-11T01:42:47;101543.38;;;8.54;68.96
19286;BME280;9776;50.798;6.430;2022-11-11T01:45:49;101556.00;;;8.49;68.89
19286;BME280;9776;50.798;6.430;2022-11-11T01:48:26;101550.31;;;8.55;68.65
19286;BME280;9776;50.798;6.430;2022-11-11T01:51:16;101550.22;;;8.57;68.35
19286;BME280;9776;50.798;6.430;2022-11-11T01:53:46;101545.56;;;8.60;68.27
19286;BME280;9776;50.798;6.430;2022-11-11T01:56:15;101547.97;;;8.63;68.16
19286;BME280;9776;50.798;6.430;2022-11-11T01:58:42;101551.38;;;8.65;68.09
19286;BME280;9776;50.798;6.430;2022-11-11T02:01:09;101549.66;;;8.64;68.11
19286;BME280;9776;50.798;6.430;2022-11-11T02:03:39;101552.41;;;8.63;68.15
19286;BME280;9776;50.798;6.430;2022-11-11T02:06:27;101559.59;;;8.48;68.26
19286;BME280;9776;50.798;6.430;2022-11-11T02:08:53;101556.31;;;8.32;68.63
19286;BME280;9776;50.798;6.430;2022-11-11T02:11:21;101557.75;;;8.23;68.66
19286;BME280;9776;50.798;6.430;2022-11-11T02:14:03;101556.78;;;8.12;68.72
19286;BME280;9776;50.798;6.430;2022-11-11T02:16:48;101556.78;;;8.12;68.46
19286;BME280;9776;50.798;6.430;2022-11-11T02:19:17;101561.13;;;8.13;68.37
19286;BME280;9776;50.798;6.430;2022-11-11T02:21:53;101565.84;;;8.08;68.36
19286;BME280;9776;50.798;6.430;2022-11-11T02:24:23;101562.66;;;8.02;68.33
19286;BME280;9776;50.798;6.430;2022-11-11T02:26:52;101560.69;;;7.93;68.59
19286;BME280;9776;50.798;6.430;2022-11-11T02:29:20;101558.78;;;7.95;68.52
19286;BME280;9776;50.798;6.430;2022-11-11T02:31:47;101563.19;;;7.95;68.45
19286;BME280;9776;50.798;6.430;2022-11-11T02:34:14;101564.31;;;7.78;68.64
19286;BME280;9776;50.798;6.430;2022-11-11T02:36:41;101565.16;;;7.79;68.83
19286;BME280;9776;50.798;6.430;2022-11-11T02:39:10;101555.38;;;7.81;68.69
19286;BME280;9776;50.798;6.430;2022-11-11T02:41:38;101557.16;;;7.80;68.75
19286;BME280;9776;50.798;6.430;2022-11-11T02:44:22;101555.28;;;7.82;68.60
19286;BME280;9776;50.798;6.430;2022-11-11T02:46:49;101556.13;;;7.83;68.59
19286;BME280;9776;50.798;6.430;2022-11-11T02:49:16;101554.88;;;7.88;68.53
19286;BME280;9776;50.798;6.430;2022-11-11T02:51:42;101560.31;;;7.85;68.33
19286;BME280;9776;50.798;6.430;2022-11-11T02:54:09;101553.94;;;7.89;68.47
19286;BME280;9776;50.798;6.430;2022-11-11T02:56:37;101552.03;;;7.91;68.31
19286;BME280;9776;50.798;6.430;2022-11-11T02:59:21;101550.66;;;7.86;68.42
19286;BME280;9776;50.798;6.430;2022-11-11T03:01:48;101555.81;;;7.87;68.28
19286;BME280;9776;50.798;6.430;2022-11-11T03:04:15;101542.47;;;7.90;68.18
19286;BME280;9776;50.798;6.430;2022-11-11T03:06:41;101545.09;;;7.90;68.29
19286;BME280;9776;50.798;6.430;2022-11-11T03:09:08;101544.16;;;7.91;68.31
19286;BME280;9776;50.798;6.430;2022-11-11T03:11:35;101543.22;;;7.92;68.24
19286;BME280;9776;50.798;6.430;2022-11-11T03:14:04;101552.03;;;7.91;68.26
19286;BME280;9776;50.798;6.430;2022-11-11T03:16:31;101543.28;;;7.91;68.09
19286;BME280;9776;50.798;6.430;2022-11-11T03:19:15;101542.88;;;7.84;68.28
19286;BME280;9776;50.798;6.430;2022-11-11T03:21:42;101544.88;;;7.81;68.35
19286;BME280;9776;50.798;6.430;2022-11-11T03:24:09;101552.13;;;7.77;68.43
19286;BME280;9776;50.798;6.430;2022-11-11T03:26:36;101554.84;;;7.76;68.41
19286;BME280;9776;50.798;6.430;2022-11-11T03:29:03;101573.34;;;7.74;68.47
19286;BME280;9776;50.798;6.430;2022-11-11T03:31:30;101561.56;;;7.67;68.50
19286;BME280;9776;50.798;6.430;2022-11-11T03:33:57;101561.34;;;7.70;68.53
19286;BME280;9776;50.798;6.430;2022-11-11T03:36:42;101550.66;;;7.73;68.52
19286;BME280;9776;50.798;6.430;2022-11-11T03:39:26;101561.34;;;7.70;68.44
19286;BME280;9776;50.798;6.430;2022-11-11T03:41:53;101563.78;;;7.73;68.24
19286;BME280;9776;50.798;6.430;2022-11-11T03:44:21;101563.78;;;7.73;68.27
19286;BME280;9776;50.798;6.430;2022-11-11T03:46:47;101559.66;;;7.69;68.35
19286;BME280;9776;50.798;6.430;2022-11-11T03:49:14;101554.22;;;7.72;68.40
19286;BME280;9776;50.798;6.430;2022-11-11T03:51:41;101556.31;;;7.67;68.38
19286;BME280;9776;50.798;6.430;2022-11-11T03:54:07;101553.13;;;7.62;68.55
19286;BME280;9776;50.798;6.430;2022-11-11T03:56:34;101559.41;;;7.60;68.61
19286;BME280;9776;50.798;6.430;2022-11-11T03:59:00;101552.97;;;7.51;68.56
19286;BME280;9776;50.798;6.430;2022-11-11T04:01:28;101541.81;;;7.48;68.61
19286;BME280;9776;50.798;6.430;2022-11-11T04:04:09;101548.31;;;7.42;68.82
19286;BME280;9776;50.798;6.430;2022-11-11T04:06:53;101553.56;;;7.42;68.62
19286;BME280;9776;50.798;6.430;2022-11-11T04:09:38;101555.91;;;7.47;68.50
19286;BME280;9776;50.798;6.430;2022-11-11T04:12:22;101554.13;;;7.47;68.43
19286;BME280;9776;50.798;6.430;2022-11-11T04:14:49;101551.50;;;7.47;68.44
19286;BME280;9776;50.798;6.430;2022-11-11T04:17:34;101545.50;;;7.45;68.51
19286;BME280;9776;50.798;6.430;2022-11-11T04:20:01;101562.22;;;7.44;68.34
19286;BME280;9776;50.798;6.430;2022-11-11T04:22:45;101553.97;;;7.36;68.52
19286;BME280;9776;50.798;6.430;2022-11-11T04:25:12;101558.69;;;7.31;68.49
19286;BME280;9776;50.798;6.430;2022-11-11T04:27:56;101567.53;;;7.30;68.53
19286;BME280;9776;50.798;6.430;2022-11-11T04:30:37;101561.81;;;7.23;68.41
19286;BME280;9776;50.798;6.430;2022-11-11T04:33:05;101554.19;;;7.19;68.41
19286;BME280;9776;50.798;6.430;2022-11-11T04:35:32;101559.97;;;7.11;68.52
19286;BME280;9776;50.798;6.430;2022-11-11T04:37:58;101554.81;;;7.10;68.50
19286;BME280;9776;50.798;6.430;2022-11-11T04:40:39;101550.69;;;7.06;68.52
19286;BME280;9776;50.798;6.430;2022-11-11T04:43:23;101554.91;;;7.08;68.44
19286;BME280;9776;50.798;6.430;2022-11-11T04:45:50;101556.59;;;7.09;68.51
19286;BME280;9776;50.798;6.430;2022-11-11T04:48:17;101552.28;;;7.08;68.53
19286;BME280;9776;50.798;6.430;2022-11-11T04:50:45;101558.91;;;7.14;68.55
19286;BME280;9776;50.798;6.430;2022-11-11T04:53:13;101562.19;;;7.17;68.47
19286;BME280;9776;50.798;6.430;2022-11-11T04:55:42;101561.34;;;7.17;68.60
19286;BME280;9776;50.798;6.430;2022-11-11T04:58:28;101564.72;;;7.19;68.61
19286;BME280;9776;50.798;6.430;2022-11-11T05:00:55;101568.09;;;7.21;68.65
19286;BME280;9776;50.798;6.430;2022-11-11T05:03:23;101568.94;;;7.21;68.62
19286;BME280;9776;50.798;6.430;2022-11-11T05:05:50;101560.09;;;7.22;68.58
19286;BME280;9776;50.798;6.430;2022-11-11T05:08:37;101560.09;;;7.22;68.65
19286;BME280;9776;50.798;6.430;2022-11-11T05:11:24;101565.47;;;7.21;68.64
19286;BME280;9776;50.798;6.430;2022-11-11T05:13:53;101571.66;;;7.20;68.83
19286;BME280;9776;50.798;6.430;2022-11-11T05:16:40;101575.88;;;7.22;68.67
19286;BME280;9776;50.798;6.430;2022-11-11T05:19:27;101575.13;;;7.20;68.88
19286;BME280;9776;50.798;6.430;2022-11-11T05:22:14;101581.44;;;7.18;68.93
19286;BME280;9776;50.798;6.430;2022-11-11T05:24:42;101575.41;;;7.16;69.13
19286;BME280;9776;50.798;6.430;2022-11-11T05:27:26;101569.41;;;7.14;69.36
19286;BME280;9776;50.798;6.430;2022-11-11T05:29:53;101568.94;;;7.21;69.33
19286;BME280;9776;50.798;6.430;2022-11-11T05:32:21;101555.59;;;7.24;69.24
19286;BME280;9776;50.798;6.430;2022-11-11T05:34:49;101564.13;;;7.28;69.40
19286;BME280;9776;50.798;6.430;2022-11-11T05:37:16;101554.31;;;7.17;69.83
19286;BME280;9776;50.798;6.430;2022-11-11T05:39:43;101559.31;;;7.08;70.32
19286;BME280;9776;50.798;6.430;2022-11-11T05:42:10;101569.25;;;7.03;70.62
19286;BME280;9776;50.798;6.430;2022-11-11T05:44:37;101581.06;;;7.10;70.52
19286;BME280;9776;50.798;6.430;2022-11-11T05:47:04;101574.47;;;7.17;70.50
19286;BME280;9776;50.798;6.430;2022-11-11T05:49:31;101574.94;;;7.23;70.32
19286;BME280;9776;50.798;6.430;2022-11-11T05:52:00;101571.06;;;7.29;70.26
19286;BME280;9776;50.798;6.430;2022-11-11T05:54:26;101570.03;;;7.31;70.26
19286;BME280;9776;50.798;6.430;2022-11-11T05:56:53;101567.31;;;7.33;70.26
19286;BME280;9776;50.798;6.430;2022-11-11T05:59:20;101566.09;;;7.38;70.20
19286;BME280;9776;50.798;6.430;2022-11-11T06:01:46;101577.22;;;7.42;70.15
19286;BME280;9776;50.798;6.430;2022-11-11T06:04:13;101582.28;;;7.45;70.37
19286;BME280;9776;50.798;6.430;2022-11-11T06:06:39;101586.19;;;7.52;70.34
19286;BME280;9776;50.798;6.430;2022-11-11T06:09:07;101583.38;;;7.55;70.39
19286;BME280;9776;50.798;6.430;2022-11-11T06:11:34;101589.16;;;7.60;70.28
19286;BME280;9776;50.798;6.430;2022-11-11T06:14:01;101593.28;;;7.64;70.39
19286;BME280;9776;50.798;6.430;2022-11-11T06:16:28;101587.00;;;7.67;70.36
19286;BME280;9776;50.798;6.430;2022-11-11T06:18:54;101592.91;;;7.70;70.42
19286;BME280;9776;50.798;6.430;2022-11-11T06:21:21;101592.69;;;7.73;70.50
19286;BME280;9776;50.798;6.430;2022-11-11T06:23:47;101590.06;;;7.73;70.64
19286;BME280;9776;50.798;6.430;2022-11-11T06:26:15;101596.25;;;7.72;70.71
19286;BME280;9776;50.798;6.430;2022-11-11T06:28:44;101599.38;;;7.65;70.93
19286;BME280;9776;50.798;6.430;2022-11-11T06:31:14;101601.19;;;7.64;71.15
19286;BME280;9776;50.798;6.430;2022-11-11T06:33:41;101603.16;;;7.61;71.31
19286;BME280;9776;50.798;6.430;2022-11-11T06:36:09;101615.13;;;7.65;71.28
19286;BME280;9776;50.798;6.430;2022-11-11T06:38:37;101617.69;;;7.66;71.32
19286;BME280;9776;50.798;6.430;2022-11-11T06:41:04;101620.19;;;7.68;71.32
19286;BME280;9776;50.798;6.430;2022-11-11T06:43:33;101620.00;;;7.71;71.25
19286;BME280;9776;50.798;6.430;2022-11-11T06:45:59;101620.09;;;7.69;71.19
19286;BME280;9776;50.798;6.430;2022-11-11T06:48:28;101617.28;;;7.72;71.10
19286;BME280;9776;50.798;6.430;2022-11-11T06:50:59;101624.25;;;7.73;71.04
19286;BME280;9776;50.798;6.430;2022-11-11T06:53:26;101623.47;;;7.71;71.02
19286;BME280;9776;50.798;6.430;2022-11-11T06:55:54;101625.16;;;7.72;71.04
19286;BME280;9776;50.798;6.430;2022-11-11T06:58:21;101629.38;;;7.75;71.04
19286;BME280;9776;50.798;6.430;2022-11-11T07:00:49;101629.38;;;7.75;70.97
19286;BME280;9776;50.798;6.430;2022-11-11T07:03:17;101630.22;;;7.75;70.88
19286;BME280;9776;50.798;6.430;2022-11-11T07:05:44;101630.09;;;7.77;70.87
19286;BME280;9776;50.798;6.430;2022-11-11T07:08:13;101630.03;;;7.78;70.87
19286;BME280;9776;50.798;6.430;2022-11-11T07:10:43;101624.66;;;7.80;70.82
19286;BME280;9776;50.798;6.430;2022-11-11T07:13:10;101626.25;;;7.82;70.64
19286;BME280;9776;50.798;6.430;2022-11-11T07:15:37;101629.72;;;7.83;70.55
19286;BME280;9776;50.798;6.430;2022-11-11T07:18:05;101637.31;;;7.87;70.54
19286;BME280;9776;50.798;6.430;2022-11-11T07:20:32;101632.88;;;7.88;70.56
19286;BME280;9776;50.798;6.430;2022-11-11T07:22:58;101635.09;;;7.94;70.48
19286;BME280;9776;50.798;6.430;2022-11-11T07:25:25;101633.13;;;7.97;70.42
19286;BME280;9776;50.798;6.430;2022-11-11T07:27:52;101632.84;;;8.02;70.37
19286;BME280;9776;50.798;6.430;2022-11-11T07:30:19;101637.06;;;8.05;70.32
19286;BME280;9776;50.798;6.430;2022-11-11T07:32:46;101642.94;;;8.08;70.27
19286;BME280;9776;50.798;6.430;2022-11-11T07:35:15;101648.53;;;8.16;70.05
19286;BME280;9776;50.798;6.430;2022-11-11T07:37:42;101649.72;;;8.25;69.90
19286;BME280;9776;50.798;6.430;2022-11-11T07:40:12;101650.28;;;8.30;69.75
19286;BME280;9776;50.798;6.430;2022-11-11T07:42:39;101655.00;;;8.37;69.90
19286;BME280;9776;50.798;6.430;2022-11-11T07:45:08;101651.97;;;8.43;69.78
19286;BME280;9776;50.798;6.430;2022-11-11T07:47:35;101654.72;;;8.42;69.76
19286;BME280;9776;50.798;6.430;2022-11-11T07:50:03;101658.00;;;8.45;69.59
19286;BME280;9776;50.798;6.430;2022-11-11T07:52:31;101666.63;;;8.47;69.40
19286;BME280;9776;50.798;6.430;2022-11-11T07:54:58;101672.72;;;8.48;69.40
19286;BME280;9776;50.798;6.430;2022-11-11T07:57:24;101684.00;;;8.50;69.52
19286;BME280;9776;50.798;6.430;2022-11-11T07:59:51;101674.50;;;8.47;69.40
19286;BME280;9776;50.798;6.430;2022-11-11T08:02:18;101673.66;;;8.47;69.27
19286;BME280;9776;50.798;6.430;2022-11-11T08:04:44;101665.78;;;8.47;69.08
19286;BME280;9776;50.798;6.430;2022-11-11T08:07:12;101664.06;;;8.46;69.19
19286;BME280;9776;50.798;6.430;2022-11-11T08:09:40;101664.19;;;8.44;68.96
19286;BME280;9776;50.798;6.430;2022-11-11T08:12:07;101672.81;;;8.46;69.05
19286;BME280;9776;50.798;6.430;2022-11-11T08:15:07;101676.81;;;8.52;68.87
19286;BME280;9776;50.798;6.430;2022-11-11T08:17:36;101675.34;;;8.61;68.62
19286;BME280;9776;50.798;6.430;2022-11-11T08:20:05;101676.44;;;8.71;68.44
19286;BME280;9776;50.798;6.430;2022-11-11T08:22:35;101676.41;;;8.83;68.14
19286;BME280;9776;50.798;6.430;2022-11-11T08:25:04;101675.38;;;8.98;67.79
19286;BME280;9776;50.798;6.430;2022-11-11T08:27:31;101681.50;;;9.11;67.64
19286;BME280;9776;50.798;6.430;2022-11-11T08:29:57;101690.09;;;9.26;67.50
19286;BME280;9776;50.798;6.430;2022-11-11T08:32:24;101685.66;;;9.39;67.10
19286;BME280;9776;50.798;6.430;2022-11-11T08:34:51;101690.91;;;9.52;66.98
19286;BME280;9776;50.798;6.430;2022-11-11T08:37:17;101697.41;;;9.59;66.96
19286;BME280;9776;50.798;6.430;2022-11-11T08:39:44;101705.38;;;9.70;66.68
19286;BME280;9776;50.798;6.430;2022-11-11T08:42:12;101697.56;;;9.81;66.49
19286;BME280;9776;50.798;6.430;2022-11-11T08:44:39;101706.59;;;9.90;66.48
19286;BME280;9776;50.798;6.430;2022-11-11T08:47:06;101703.03;;;10.02;66.27
19286;BME280;9776;50.798;6.430;2022-11-11T08:49:33;101696.47;;;10.07;66.10
19286;BME280;9776;50.798;6.430;2022-11-11T08:51:59;101702.50;;;10.09;66.18
19286;BME280;9776;50.798;6.430;2022-11-11T08:54:26;101702.38;;;10.11;66.32
19286;BME280;9776;50.798;6.430;2022-11-11T08:56:53;101705.94;;;10.22;66.33
19286;BME280;9776;50.798;6.430;2022-11-11T08:59:21;101703.47;;;10.32;66.19
19286;BME280;9776;50.798;6.430;2022-11-11T09:01:47;101698.34;;;10.42;66.08
19286;BME280;9776;50.798;6.430;2022-11-11T09:04:14;101697.63;;;10.51;66.14
19286;BME280;9776;50.798;6.430;2022-11-11T09:06:41;101704.41;;;10.66;65.81
19286;BME280;9776;50.798;6.430;2022-11-11T09:09:10;101707.19;;;10.75;65.94
19286;BME280;9776;50.798;6.430;2022-11-11T09:11:36;101700.94;;;10.76;65.86
19286;BME280;9776;50.798;6.430;2022-11-11T09:14:03;101702.75;;;10.76;66.07
19286;BME280;9776;50.798;6.430;2022-11-11T09:16:31;101701.31;;;10.83;65.87
19286;BME280;9776;50.798;6.430;2022-11-11T09:18:58;101710.69;;;10.87;66.08
19286;BME280;9776;50.798;6.430;2022-11-11T09:21:25;101699.41;;;10.96;66.13
19286;BME280;9776;50.798;6.430;2022-11-11T09:23:51;101709.03;;;11.08;65.84
19286;BME280;9776;50.798;6.430;2022-11-11T09:26:18;101702.91;;;11.19;65.63
19286;BME280;9776;50.798;6.430;2022-11-11T09:28:45;101699.41;;;11.29;65.48
19286;BME280;9776;50.798;6.430;2022-11-11T09:31:11;101702.28;;;11.37;65.61
19286;BME280;9776;50.798;6.430;2022-11-11T09:33:39;101697.75;;;11.51;65.21
19286;BME280;9776;50.798;6.430;2022-11-11T09:36:06;101697.72;;;11.62;65.06
19286;BME280;9776;50.798;6.430;2022-11-11T09:38:33;101695.06;;;11.73;64.82
19286;BME280;9776;50.798;6.430;2022-11-11T09:41:10;101700.34;;;11.84;64.75
19286;BME280;9776;50.798;6.430;2022-11-11T09:43:44;101698.88;;;11.91;64.46
19286;BME280;9776;50.798;6.430;2022-11-11T09:46:22;101696.22;;;12.02;64.27
19286;BME280;9776;50.798;6.430;2022-11-11T09:49:07;101702.91;;;12.17;64.08
19286;BME280;9776;50.798;6.430;2022-11-11T09:51:44;101704.25;;;12.32;63.54
19286;BME280;9776;50.798;6.430;2022-11-11T09:54:16;101697.56;;;12.49;63.42
19286;BME280;9776;50.798;6.430;2022-11-11T09:56:44;101704.47;;;12.61;63.18
19286;BME280;9776;50.798;6.430;2022-11-11T09:59:15;101702.47;;;12.74;62.79
19286;BME280;9776;50.798;6.430;2022-11-11T10:01:46;101700.94;;;12.92;62.49
19286;BME280;9776;50.798;6.430;2022-11-11T10:04:28;101694.84;;;13.01;61.96
19286;BME280;9776;50.798;6.430;2022-11-11T10:06:59;101700.09;;;13.22;61.96
19286;BME280;9776;50.798;6.430;2022-11-11T10:09:34;101703.69;;;13.42;61.38
19286;BME280;9776;50.798;6.430;2022-11-11T10:12:09;101696.63;;;13.61;61.38
19286;BME280;9776;50.798;6.430;2022-11-11T10:14:38;101695.56;;;13.83;60.87
19286;BME280;9776;50.798;6.430;2022-11-11T10:17:15;101693.66;;;14.14;60.08
19286;BME280;9776;50.798;6.430;2022-11-11T10:19:52;101696.31;;;14.52;59.09
19286;BME280;9776;50.798;6.430;2022-11-11T10:22:26;101690.25;;;14.79;58.17
19286;BME280;9776;50.798;6.430;2022-11-11T10:25:06;101694.25;;;14.93;57.79
19286;BME280;9776;50.798;6.430;2022-11-11T10:27:33;101688.75;;;15.13;56.93
19286;BME280;9776;50.798;6.430;2022-11-11T10:30:01;101695.28;;;15.19;56.49
19286;BME280;9776;50.798;6.430;2022-11-11T10:32:34;101691.22;;;15.24;56.33
19286;BME280;9776;50.798;6.430;2022-11-11T10:35:15;101697.09;;;15.28;55.64
19286;BME280;9776;50.798;6.430;2022-11-11T10:37:42;101692.16;;;15.33;55.69
19286;BME280;9776;50.798;6.430;2022-11-11T10:40:16;101696.31;;;15.45;55.43
19286;BME280;9776;50.798;6.430;2022-11-11T10:42:44;101682.53;;;15.59;55.05
19286;BME280;9776;50.798;6.430;2022-11-11T10:45:15;101690.63;;;15.85;54.41
19286;BME280;9776;50.798;6.430;2022-11-11T10:47:52;101679.09;;;16.12;53.41
19286;BME280;9776;50.798;6.430;2022-11-11T10:50:26;101682.84;;;16.19;53.43
19286;BME280;9776;50.798;6.430;2022-11-11T10:52:59;101696.06;;;16.28;53.37
19286;BME280;9776;50.798;6.430;2022-11-11T10:55:32;101700.78;;;16.34;53.24
19286;BME280;9776;50.798;6.430;2022-11-11T10:58:08;101699.31;;;16.40;53.00
19286;BME280;9776;50.798;6.430;2022-11-11T11:00:37;101696.66;;;16.40;52.87
19286;BME280;9776;50.798;6.430;2022-11-11T11:03:10;101693.03;;;16.59;52.21
19286;BME280;9776;50.798;6.430;2022-11-11T11:05:45;101697.84;;;16.81;52.00
19286;BME280;9776;50.798;6.430;2022-11-11T11:08:16;101693.47;;;17.06;51.38
19286;BME280;9776;50.798;6.430;2022-11-11T11:10:48;101694.59;;;17.29;51.31
19286;BME280;9776;50.798;6.430;2022-11-11T11:13:20;101694.88;;;17.51;50.71
19286;BME280;9776;50.798;6.430;2022-11-11T11:15:55;101684.16;;;17.77;50.15
19286;BME280;9776;50.798;6.430;2022-11-11T11:18:24;101683.19;;;18.02;49.91
19286;BME280;9776;50.798;6.430;2022-11-11T11:20:57;101681.88;;;18.31;49.08
19286;BME280;9776;50.798;6.430;2022-11-11T11:23:38;101692.59;;;18.63;48.66
19286;BME280;9776;50.798;6.430;2022-11-11T11:26:08;101687.38;;;18.86;48.05
19286;BME280;9776;50.798;6.430;2022-11-11T11:28:51;101685.22;;;18.81;47.99
19286;BME280;9776;50.798;6.430;2022-11-11T11:31:33;101686.72;;;18.84;47.67
19286;BME280;9776;50.798;6.430;2022-11-11T11:34:01;101686.72;;;18.84;47.70
19286;BME280;9776;50.798;6.430;2022-11-11T11:36:29;101689.06;;;18.87;47.51
19286;BME280;9776;50.798;6.430;2022-11-11T11:38:55;101685.53;;;18.86;47.48
19286;BME280;9776;50.798;6.430;2022-11-11T11:41:35;101682.56;;;18.81;47.04
19286;BME280;9776;50.798;6.430;2022-11-11T11:44:02;101683.84;;;18.93;47.06
19286;BME280;9776;50.798;6.430;2022-11-11T11:46:33;101681.28;;;19.08;46.66
19286;BME280;9776;50.798;6.430;2022-11-11T11:49:11;101681.28;;;19.16;46.33
19286;BME280;9776;50.798;6.430;2022-11-11T11:51:50;101684.81;;;19.08;46.60
19286;BME280;9776;50.798;6.430;2022-11-11T11:54:34;101684.88;;;18.84;46.78
19286;BME280;9776;50.798;6.430;2022-11-11T11:57:14;101680.06;;;18.72;47.02
19286;BME280;9776;50.798;6.430;2022-11-11T11:59:50;101684.06;;;18.76;47.26
19286;BME280;9776;50.798;6.430;2022-11-11T12:02:37;101679.22;;;18.63;47.38
19286;BME280;9776;50.798;6.430;2022-11-11T12:05:09;101679.25;;;18.55;47.49
19286;BME280;9776;50.798;6.430;2022-11-11T12:07:56;101678.19;;;18.48;47.61
19286;BME280;9776;50.798;6.430;2022-11-11T12:10:36;101675.53;;;18.48;47.92
19286;BME280;9776;50.798;6.430;2022-11-11T12:13:11;101674.22;;;18.60;47.45
19286;BME280;9776;50.798;6.430;2022-11-11T12:15:47;101670.53;;;18.69;47.33
19286;BME280;9776;50.798;6.430;2022-11-11T12:18:28;101672.66;;;18.90;47.28
19286;BME280;9776;50.798;6.430;2022-11-11T12:21:03;101664.41;;;19.15;46.56
19286;BME280;9776;50.798;6.430;2022-11-11T12:23:50;101668.56;;;19.65;45.56
19286;BME280;9776;50.798;6.430;2022-11-11T12:26:23;101662.13;;;20.27;44.47
19286;BME280;9776;50.798;6.430;2022-11-11T12:29:08;101652.91;;;21.11;42.96
19286;BME280;9776;50.798;6.430;2022-11-11T12:31:56;101660.03;;;22.05;41.35
19286;BME280;9776;50.798;6.430;2022-11-11T12:34:52;101653.03;;;22.81;40.00
19286;BME280;9776;50.798;6.430;2022-11-11T12:37:27;101655.19;;;23.33;39.09
19286;BME280;9776;50.798;6.430;2022-11-11T12:40:12;101648.56;;;23.35;39.20
19286;BME280;9776;50.798;6.430;2022-11-11T12:42:50;101654.00;;;23.01;39.52
19286;BME280;9776;50.798;6.430;2022-11-11T12:45:22;101642.94;;;22.61;40.14
19286;BME280;9776;50.798;6.430;2022-11-11T12:47:57;101638.91;;;22.72;39.88
19286;BME280;9776;50.798;6.430;2022-11-11T12:50:33;101636.03;;;22.80;39.55
19286;BME280;9776;50.798;6.430;2022-11-11T12:53:14;101639.66;;;22.94;39.25
19286;BME280;9776;50.798;6.430;2022-11-11T12:56:00;101639.56;;;23.15;38.87
19286;BME280;9776;50.798;6.430;2022-11-11T12:58:37;101636.63;;;23.10;38.96
19286;BME280;9776;50.798;6.430;2022-11-11T13:01:17;101632.72;;;22.78;39.33
19286;BME280;9776;50.798;6.430;2022-11-11T13:04:18;101615.53;;;22.51;39.72
19286;BME280;9776;50.798;6.430;2022-11-11T13:07:16;101623.53;;;22.38;39.83
19286;BME280;9776;50.798;6.430;2022-11-11T13:10:12;101622.84;;;22.30;39.85
19286;BME280;9776;50.798;6.430;2022-11-11T13:12:45;101618.59;;;22.42;39.72
19286;BME280;9776;50.798;6.430;2022-11-11T13:15:20;101616.06;;;22.40;39.69
19286;BME280;9776;50.798;6.430;2022-11-11T13:17:48;101615.22;;;22.12;39.93
19286;BME280;9776;50.798;6.430;2022-11-11T13:20:20;101612.16;;;21.94;40.22
19286;BME280;9776;50.798;6.430;2022-11-11T13:22:49;101611.09;;;21.74;40.57
19286;BME280;9776;50.798;6.430;2022-11-11T13:25:20;101614.06;;;21.79;40.44
19286;BME280;9776;50.798;6.430;2022-11-11T13:27:52;101607.81;;;21.93;40.09
19286;BME280;9776;50.798;6.430;2022-11-11T13:30:38;101607.69;;;22.01;39.86
19286;BME280;9776;50.798;6.430;2022-11-11T13:35:41;101600.78;;;21.92;39.88